アセンション島 の空港の天気 - METARとTAF

アセンション島空軍基地 ( FHAW / ASI ) - ジョージタウン
飛行場実況気象(Metar)
観測時間10/17 07:50 GMT (10/17 07:50 UTC)
風向・風速南東 8m/s
視程10km以上
天気現象
少しの雲 雲底高度 610m
気温24℃
湿度69%
気圧1016hPa
METARFHAW 170750Z 13015KT 9999 FEW020 24/18 Q1016 BLU NOSIG
過去の天気等 Google飛行場航空写真 Wunderground天気予報

過去48時間のMETAR

飛行場予報(TAF)
発表時間: 10/17 07:30 GMT (10/17 07:30 UTC)
予報対象時間: 17日9時 GMT ~ 18日3時 GMT
風向・風速南東 7m/s
視程10km以上
少しの雲 雲底高度 550m
全天の8割程度の雲 雲底高度 1070m
17日9時 GMT ~ 18日3時 GMT に一時的に
全天の4割程度の雲 雲底高度 430m
17日21時 GMT ~ 18日3時 GMT に 確率 30% で一時的に
視程4000m
天気現象しゅう雨
全天の4割程度の雲 雲底高度 180m
TAF FHAW 170730Z 1709/1803 13014KT 9999 FEW018 BKN035
TEMPO 1709/1803 SCT014
PROB30 TEMPO 1721/1803 4000 SHRA SCT006